Time;durP1;ratioP1;P1;durP2;ratioP2;P2;SDS_P1;SDS_P2;PMS_P1;PMS_P2;Temp;Humidity;BMP_temperature;BMP_pressure;BME280_temperature;BME280_humidity;BME280_pressure;Samples;Min_cycle;Max_cycle;Signal;HPM_P1;HPM_P2
2023/08/15 00:01:36;;;;;;;11.95;7.32;;;20.90;99.90;;;;;;6159444;23;20016;-87
2023/08/15 00:04:02;;;;;;;13.05;6.00;;;20.80;99.90;;;;;;6134684;23;20005;-87
2023/08/15 00:06:28;;;;;;;10.38;4.93;;;20.80;99.90;;;;;;6159538;23;20517;-87
2023/08/15 00:08:54;;;;;;;10.00;4.40;;;20.70;99.90;;;;;;6134494;23;20013;-87
2023/08/15 00:11:23;;;;;;;10.30;4.65;;;20.60;99.90;;;;;;6159328;23;20020;-87
2023/08/15 00:13:49;;;;;;;10.23;5.20;;;20.60;99.90;;;;;;6159178;23;20039;-86
2023/08/15 00:16:15;;;;;;;10.15;5.07;;;20.50;99.90;;;;;;6134629;23;20458;-87
2023/08/15 00:18:41;;;;;;;10.75;5.88;;;20.50;99.90;;;;;;6134726;23;20024;-87
2023/08/15 00:21:07;;;;;;;13.32;6.43;;;20.50;99.90;;;;;;6134555;23;20019;-87
2023/08/15 00:23:32;;;;;;;14.30;7.30;;;20.50;99.90;;;;;;6134499;23;20009;-87
2023/08/15 00:25:58;;;;;;;13.15;7.90;;;20.50;99.90;;;;;;6159531;23;20020;-87
2023/08/15 00:28:23;;;;;;;12.57;8.13;;;20.40;99.90;;;;;;6158698;23;20534;-87
2023/08/15 00:30:50;;;;;;;13.50;8.65;;;20.40;99.90;;;;;;6159525;23;20084;-87
2023/08/15 00:33:15;;;;;;;14.05;9.23;;;20.40;99.90;;;;;;6134411;23;20048;-87
2023/08/15 00:35:44;;;;;;;14.55;8.65;;;20.40;99.90;;;;;;6134332;23;20598;-87
2023/08/15 00:38:10;;;;;;;15.30;9.23;;;20.40;99.90;;;;;;6133928;23;20423;-86
2023/08/15 00:40:39;;;;;;;12.35;8.07;;;20.40;99.90;;;;;;6134583;23;20048;-87
2023/08/15 00:43:05;;;;;;;12.23;8.02;;;20.40;99.90;;;;;;6134322;23;20347;-86
2023/08/15 00:45:31;;;;;;;14.13;8.73;;;20.40;99.90;;;;;;6159412;23;20021;-87
2023/08/15 00:47:57;;;;;;;12.65;8.85;;;20.40;99.90;;;;;;6134161;23;20510;-86
2023/08/15 00:50:24;;;;;;;13.90;8.20;;;20.40;99.90;;;;;;6158936;23;20103;-87
2023/08/15 00:52:50;;;;;;;16.63;9.80;;;20.40;99.90;;;;;;6158409;23;20459;-87
2023/08/15 00:55:17;;;;;;;15.00;9.60;;;20.40;99.90;;;;;;6134312;23;20096;-86
2023/08/15 00:57:43;;;;;;;13.73;9.15;;;20.40;99.90;;;;;;6134074;23;20017;-87
2023/08/15 01:00:11;;;;;;;14.40;9.43;;;20.30;99.90;;;;;;6134753;23;20040;-87
2023/08/15 01:02:37;;;;;;;16.05;10.55;;;20.40;99.90;;;;;;6158833;23;20016;-87
2023/08/15 01:05:04;;;;;;;17.42;10.00;;;20.40;99.90;;;;;;6134333;23;20493;-87
2023/08/15 01:07:30;;;;;;;15.85;9.68;;;20.40;99.90;;;;;;6158555;23;20023;-87
2023/08/15 01:09:56;;;;;;;15.85;10.48;;;20.40;99.90;;;;;;6158732;23;20091;-87
2023/08/15 01:12:25;;;;;;;14.63;10.18;;;20.40;99.90;;;;;;6158717;23;20015;-87
2023/08/15 01:15:16;;;;;;;14.45;9.82;;;20.30;99.90;;;;;;6158935;23;20019;-87
2023/08/15 01:18:08;;;;;;;13.60;9.65;;;20.40;99.90;;;;;;6148244;23;20328;-87
2023/08/15 01:20:36;;;;;;;14.90;10.00;;;20.30;99.90;;;;;;6134644;23;20013;-86
2023/08/15 01:23:06;;;;;;;13.63;10.65;;;20.30;99.90;;;;;;6158609;23;20519;-87
2023/08/15 01:25:32;;;;;;;14.00;9.70;;;20.30;99.90;;;;;;6134025;23;20017;-87
2023/08/15 01:27:59;;;;;;;13.48;9.93;;;20.30;99.90;;;;;;6133959;23;20044;-87
2023/08/15 01:30:25;;;;;;;12.73;10.10;;;20.30;99.90;;;;;;6158631;23;20023;-87
2023/08/15 01:33:18;;;;;;;15.15;10.95;;;20.30;99.90;;;;;;6158841;23;20092;-87
2023/08/15 01:35:47;;;;;;;13.40;10.52;;;20.30;99.90;;;;;;6133781;23;20016;-87
2023/08/15 01:38:25;;;;;;;14.88;10.68;;;20.20;99.90;;;;;;6158312;23;20012;-87
2023/08/15 01:40:55;;;;;;;15.25;10.15;;;20.20;99.90;;;;;;6134164;23;20043;-87
2023/08/15 01:43:22;;;;;;;13.98;10.10;;;20.20;99.90;;;;;;6133993;23;20016;-87
2023/08/15 01:45:48;;;;;;;16.13;9.52;;;20.20;99.90;;;;;;6134354;23;20447;-87
2023/08/15 01:48:15;;;;;;;16.77;10.65;;;20.20;99.90;;;;;;6158122;23;20009;-87
2023/08/15 01:50:40;;;;;;;14.65;10.32;;;20.20;99.90;;;;;;6158527;23;20052;-87
2023/08/15 01:53:06;;;;;;;15.35;9.60;;;20.20;99.90;;;;;;6133879;23;20355;-87
2023/08/15 01:55:31;;;;;;;13.52;9.60;;;20.10;99.90;;;;;;6158367;23;20066;-87
2023/08/15 01:57:57;;;;;;;13.32;10.68;;;20.10;99.90;;;;;;6158224;23;20052;-87
2023/08/15 02:00:23;;;;;;;15.05;10.63;;;20.10;99.90;;;;;;6173899;23;20017;-82
2023/08/15 02:02:48;;;;;;;15.63;10.98;;;20.10;99.90;;;;;;6169941;23;20040;-86
2023/08/15 02:05:14;;;;;;;16.35;11.68;;;20.10;99.90;;;;;;6160018;23;20355;-86
2023/08/15 02:07:40;;;;;;;13.35;10.80;;;20.10;99.90;;;;;;6135177;23;20442;-86
2023/08/15 02:10:06;;;;;;;13.98;10.35;;;20.10;99.90;;;;;;6134715;23;20013;-87
2023/08/15 02:12:31;;;;;;;12.85;10.38;;;20.10;99.90;;;;;;6159796;23;20147;-86
2023/08/15 02:14:57;;;;;;;14.07;10.95;;;20.10;99.90;;;;;;6134737;23;20044;-87
2023/08/15 02:17:23;;;;;;;16.35;11.15;;;20.10;99.90;;;;;;6158528;23;20009;-86
2023/08/15 02:19:49;;;;;;;16.17;11.63;;;20.10;99.90;;;;;;6158551;23;20402;-86
2023/08/15 02:22:14;;;;;;;14.27;11.95;;;20.10;99.90;;;;;;6134166;23;20035;-86
2023/08/15 02:24:40;;;;;;;14.68;11.18;;;20.00;99.90;;;;;;6133963;23;20092;-86
2023/08/15 02:27:05;;;;;;;14.18;11.70;;;20.00;99.90;;;;;;6157856;23;20005;-86
2023/08/15 02:29:31;;;;;;;16.42;11.65;;;20.00;99.90;;;;;;6158201;23;20107;-86
2023/08/15 02:31:57;;;;;;;15.98;11.00;;;20.00;99.90;;;;;;6158328;23;20017;-86
2023/08/15 02:34:23;;;;;;;15.25;11.43;;;20.00;99.90;;;;;;6158033;23;20017;-86
2023/08/15 02:36:48;;;;;;;19.15;12.15;;;19.90;99.90;;;;;;6133162;23;20092;-86
2023/08/15 02:39:16;;;;;;;15.50;13.05;;;19.90;99.90;;;;;;6132959;23;20091;-86
2023/08/15 02:41:42;;;;;;;18.60;13.25;;;19.90;99.90;;;;;;6158457;23;20019;-86
2023/08/15 02:44:08;;;;;;;14.73;12.85;;;19.90;99.90;;;;;;6157155;23;20005;-86
2023/08/15 02:46:34;;;;;;;15.60;12.70;;;19.90;99.90;;;;;;6133006;23;20463;-87
2023/08/15 02:48:59;;;;;;;15.82;13.18;;;19.90;99.90;;;;;;6133097;23;20016;-86
2023/08/15 02:51:25;;;;;;;17.15;12.93;;;19.90;99.90;;;;;;6133356;23;20016;-86
2023/08/15 02:53:51;;;;;;;15.88;13.43;;;19.90;99.90;;;;;;6133621;23;20346;-87
2023/08/15 02:56:17;;;;;;;15.20;12.88;;;19.90;99.90;;;;;;6133210;23;20009;-87
2023/08/15 02:58:43;;;;;;;15.57;12.55;;;19.90;99.90;;;;;;6133160;23;20009;-87
2023/08/15 03:01:09;;;;;;;16.15;13.63;;;19.90;99.90;;;;;;6158020;23;20324;-86
2023/08/15 03:03:35;;;;;;;17.95;14.40;;;19.90;99.90;;;;;;6158079;23;20502;-86
2023/08/15 03:06:01;;;;;;;16.55;13.13;;;20.00;99.90;;;;;;6133076;23;20006;-86
2023/08/15 03:08:27;;;;;;;15.57;13.85;;;20.00;99.90;;;;;;6157253;23;20008;-86
2023/08/15 03:10:53;;;;;;;17.05;14.40;;;20.00;99.90;;;;;;6158482;23;20013;-86
2023/08/15 03:13:19;;;;;;;17.15;14.88;;;20.00;99.90;;;;;;6158089;23;20056;-86
2023/08/15 03:15:54;;;;;;;17.70;13.73;;;20.00;99.90;;;;;;6132889;23;20017;-86
2023/08/15 03:18:20;;;;;;;17.02;14.63;;;20.10;99.90;;;;;;6134529;23;20009;-86
2023/08/15 03:20:59;;;;;;;16.20;14.50;;;20.10;99.90;;;;;;6159780;23;20047;-86
2023/08/15 03:23:25;;;;;;;17.48;13.88;;;20.10;99.90;;;;;;6160067;23;20088;-86
2023/08/15 03:25:59;;;;;;;17.17;14.18;;;20.10;99.90;;;;;;6159769;23;20447;-86
2023/08/15 03:28:25;;;;;;;17.40;14.85;;;20.10;99.90;;;;;;6159581;23;20039;-86
2023/08/15 03:30:51;;;;;;;17.65;15.63;;;20.10;99.90;;;;;;6159803;23;20629;-86
2023/08/15 03:33:17;;;;;;;16.67;14.13;;;20.10;99.90;;;;;;6160085;23;20031;-86
2023/08/15 03:35:50;;;;;;;16.35;13.50;;;20.10;99.90;;;;;;6159251;23;20518;-86
2023/08/15 03:38:22;;;;;;;19.23;14.18;;;20.20;99.90;;;;;;6134953;23;20358;-87
2023/08/15 03:40:49;;;;;;;17.88;14.88;;;20.10;99.90;;;;;;6159805;23;20024;-87
2023/08/15 03:43:15;;;;;;;16.73;13.88;;;20.20;99.90;;;;;;6135194;23;20009;-86
2023/08/15 03:45:41;;;;;;;17.70;14.85;;;20.20;99.90;;;;;;6135130;23;20013;-86
2023/08/15 03:48:08;;;;;;;16.17;13.77;;;20.20;99.90;;;;;;6159479;23;20517;-86
2023/08/15 03:50:35;;;;;;;16.85;13.70;;;20.20;99.90;;;;;;6159515;23;20013;-86
2023/08/15 03:53:00;;;;;;;17.63;14.55;;;20.20;99.90;;;;;;6159511;23;20068;-86
2023/08/15 03:55:27;;;;;;;16.25;13.43;;;20.20;99.90;;;;;;6159595;23;20017;-86
2023/08/15 03:57:53;;;;;;;17.30;14.18;;;20.10;99.90;;;;;;6160019;23;20599;-86
2023/08/15 04:00:18;;;;;;;14.93;13.32;;;20.10;99.90;;;;;;6185534;23;20088;-86
2023/08/15 04:02:45;;;;;;;15.30;13.27;;;20.20;99.90;;;;;;6159521;23;20463;-86
2023/08/15 04:05:11;;;;;;;17.90;13.75;;;20.20;99.90;;;;;;6134896;23;20013;-87
2023/08/15 04:07:37;;;;;;;19.08;15.25;;;20.20;99.90;;;;;;6134407;23;20009;-86
2023/08/15 04:10:03;;;;;;;19.63;15.50;;;20.20;99.90;;;;;;6134970;23;20017;-86
2023/08/15 04:12:29;;;;;;;17.92;15.93;;;20.30;99.90;;;;;;6134498;23;20429;-86
2023/08/15 04:14:55;;;;;;;18.75;14.93;;;20.30;99.90;;;;;;6134881;23;20055;-86
2023/08/15 04:17:20;;;;;;;17.33;15.40;;;20.20;99.90;;;;;;6110552;23;20017;-86
2023/08/15 04:19:46;;;;;;;17.70;14.40;;;20.20;99.90;;;;;;6159721;23;20017;-87
2023/08/15 04:22:12;;;;;;;18.25;14.55;;;20.20;99.90;;;;;;6159647;23;20012;-86
2023/08/15 04:24:37;;;;;;;18.27;13.50;;;20.20;99.90;;;;;;6159363;23;20017;-87
2023/08/15 04:27:06;;;;;;;17.90;14.75;;;20.20;99.90;;;;;;6158945;23;20080;-87
2023/08/15 04:29:32;;;;;;;15.68;14.00;;;20.30;99.90;;;;;;6159064;23;20013;-86
2023/08/15 04:31:57;;;;;;;16.42;14.50;;;20.30;99.90;;;;;;6134648;23;20678;-87
2023/08/15 04:34:23;;;;;;;18.40;15.55;;;20.30;99.90;;;;;;6134942;23;20020;-86
2023/08/15 04:36:49;;;;;;;19.27;15.32;;;20.30;99.90;;;;;;6158787;23;20009;-86
2023/08/15 04:39:17;;;;;;;16.80;15.00;;;20.30;99.90;;;;;;6158792;23;20020;-86
2023/08/15 04:41:43;;;;;;;17.00;15.18;;;20.30;99.90;;;;;;6159088;23;20016;-86
2023/08/15 04:44:10;;;;;;;17.20;15.02;;;20.30;99.90;;;;;;6159038;23;20358;-86
2023/08/15 04:46:36;;;;;;;17.98;14.50;;;20.30;99.90;;;;;;6158586;23;20009;-86
2023/08/15 04:49:01;;;;;;;16.92;15.07;;;20.30;99.90;;;;;;6155636;23;20052;-86
2023/08/15 04:51:27;;;;;;;18.13;15.02;;;20.30;99.90;;;;;;6157707;23;20020;-86
2023/08/15 04:53:53;;;;;;;15.80;14.10;;;20.30;99.90;;;;;;6132930;23;20009;-86
2023/08/15 04:56:18;;;;;;;19.17;15.13;;;20.30;99.90;;;;;;6157387;23;20009;-86
2023/08/15 04:58:44;;;;;;;18.35;13.98;;;20.30;99.90;;;;;;6157171;23;20063;-86
2023/08/15 05:01:09;;;;;;;17.17;15.27;;;20.30;99.90;;;;;;6133951;23;20017;-87
2023/08/15 05:03:35;;;;;;;16.77;14.20;;;20.30;99.90;;;;;;6157372;23;20016;-87
2023/08/15 05:06:02;;;;;;;19.60;14.88;;;20.20;99.90;;;;;;6157808;23;20091;-87
2023/08/15 05:08:28;;;;;;;16.05;13.68;;;20.20;99.90;;;;;;6157119;23;20394;-87
2023/08/15 05:10:54;;;;;;;20.20;15.45;;;20.20;99.90;;;;;;6157638;23;20013;-87
2023/08/15 05:13:20;;;;;;;16.58;14.70;;;20.20;99.90;;;;;;6132970;23;20077;-87
2023/08/15 05:15:46;;;;;;;16.85;14.23;;;20.10;99.90;;;;;;6158004;23;20088;-87
2023/08/15 05:18:12;;;;;;;18.70;14.75;;;20.10;99.90;;;;;;6157333;23;20087;-87
2023/08/15 05:20:38;;;;;;;19.77;16.13;;;20.10;99.90;;;;;;6157492;23;20420;-87
2023/08/15 05:23:04;;;;;;;18.30;15.63;;;20.10;99.90;;;;;;6133393;23;20013;-87
2023/08/15 05:25:29;;;;;;;18.40;15.65;;;20.10;99.90;;;;;;6157724;23;20872;-86
2023/08/15 05:27:56;;;;;;;18.63;16.65;;;20.10;99.90;;;;;;6157906;23;20063;-86
2023/08/15 05:30:22;;;;;;;18.02;16.13;;;20.10;99.90;;;;;;6158522;23;20362;-86
2023/08/15 05:33:03;;;;;;;18.45;16.08;;;20.10;99.90;;;;;;6158940;23;20075;-86
2023/08/15 05:35:29;;;;;;;19.45;17.40;;;20.10;99.90;;;;;;6158049;23;20092;-87
2023/08/15 05:37:54;;;;;;;18.77;16.08;;;20.10;99.90;;;;;;6158104;23;20032;-87
2023/08/15 05:40:21;;;;;;;19.35;15.90;;;20.10;99.90;;;;;;6132666;23;20013;-87
2023/08/15 05:42:47;;;;;;;20.45;16.58;;;20.10;99.90;;;;;;6157701;23;20471;-86
2023/08/15 05:45:13;;;;;;;17.75;15.88;;;20.10;99.90;;;;;;6133149;23;20013;-87
2023/08/15 05:47:39;;;;;;;17.80;15.90;;;20.10;99.90;;;;;;6157924;23;20382;-87
2023/08/15 05:50:04;;;;;;;18.77;14.63;;;20.00;99.90;;;;;;6158382;23;20442;-87
2023/08/15 05:52:30;;;;;;;17.83;14.40;;;20.00;99.90;;;;;;6156671;23;20059;-87
2023/08/15 05:54:56;;;;;;;19.13;14.52;;;19.90;99.90;;;;;;6133342;23;20013;-87
2023/08/15 05:57:23;;;;;;;16.50;14.18;;;19.90;99.90;;;;;;6133102;23;20083;-86
2023/08/15 05:59:48;;;;;;;17.30;13.63;;;19.90;99.90;;;;;;6133028;23;20470;-87
2023/08/15 06:02:14;;;;;;;15.88;13.75;;;19.80;99.90;;;;;;6157629;23;20005;-86
2023/08/15 06:04:40;;;;;;;17.65;14.05;;;19.80;99.90;;;;;;6157389;23;20020;-86
2023/08/15 06:07:06;;;;;;;17.02;13.25;;;19.80;99.90;;;;;;6157536;23;20176;-87
2023/08/15 06:09:32;;;;;;;17.13;13.27;;;19.70;99.90;;;;;;6157740;23;20466;-87
2023/08/15 06:11:58;;;;;;;18.10;13.20;;;19.70;99.90;;;;;;6158320;23;20017;-87
2023/08/15 06:14:24;;;;;;;16.70;13.10;;;19.70;99.90;;;;;;6133676;23;20032;-87
2023/08/15 06:16:49;;;;;;;16.38;12.73;;;19.70;99.90;;;;;;6133306;23;20017;-87
2023/08/15 06:19:15;;;;;;;17.60;13.32;;;19.60;99.90;;;;;;6133109;23;20112;-86
2023/08/15 06:21:41;;;;;;;18.00;12.95;;;19.60;99.90;;;;;;6132720;23;20036;-87
2023/08/15 06:24:11;;;;;;;15.43;12.35;;;19.60;99.90;;;;;;6132569;23;20049;-87
2023/08/15 06:26:37;;;;;;;16.25;12.68;;;19.50;99.90;;;;;;6132777;23;20416;-87
2023/08/15 06:29:06;;;;;;;17.08;12.38;;;19.60;99.90;;;;;;6132688;23;20009;-87
2023/08/15 06:31:33;;;;;;;16.45;11.18;;;19.60;99.90;;;;;;6157220;23;20558;-87
2023/08/15 06:34:00;;;;;;;15.00;10.50;;;19.60;99.90;;;;;;6156520;23;20009;-87
2023/08/15 06:36:28;;;;;;;15.93;10.88;;;19.70;99.90;;;;;;6133131;23;20124;-87
2023/08/15 06:38:54;;;;;;;13.40;6.97;;;19.60;99.90;;;;;;6156786;23;20005;-87
2023/08/15 06:41:23;;;;;;;16.98;10.73;;;19.60;99.90;;;;;;6132257;23;20451;-87
2023/08/15 06:43:48;;;;;;;15.55;9.60;;;19.70;99.90;;;;;;6132601;23;20008;-87
2023/08/15 06:46:14;;;;;;;16.17;9.80;;;19.80;99.90;;;;;;6132757;23;20410;-87
2023/08/15 06:48:41;;;;;;;14.82;8.55;;;19.80;99.90;;;;;;6132125;23;20194;-87
2023/08/15 06:51:06;;;;;;;15.80;8.70;;;19.90;99.90;;;;;;6157061;23;20466;-87
2023/08/15 06:53:33;;;;;;;14.30;8.55;;;19.90;99.90;;;;;;6135543;23;20020;-87
2023/08/15 06:55:58;;;;;;;16.35;8.90;;;19.90;99.90;;;;;;6133645;23;20044;-87
2023/08/15 06:58:25;;;;;;;16.40;8.70;;;20.00;99.90;;;;;;6134181;23;20013;-87
2023/08/15 07:00:51;;;;;;;12.02;7.25;;;20.00;99.90;;;;;;6184385;23;20013;-87
2023/08/15 07:03:18;;;;;;;12.85;7.50;;;20.00;99.90;;;;;;6134741;23;20354;-88
2023/08/15 07:05:45;;;;;;;13.45;7.78;;;20.10;99.90;;;;;;6134274;23;20090;-88
2023/08/15 07:08:13;;;;;;;13.98;7.93;;;20.10;99.90;;;;;;6158633;23;20486;-87
2023/08/15 07:10:39;;;;;;;14.23;8.32;;;20.10;99.90;;;;;;6134923;23;20013;-88
2023/08/15 07:13:05;;;;;;;14.50;7.22;;;20.20;99.90;;;;;;6134958;23;20363;-87
2023/08/15 07:15:31;;;;;;;14.10;7.20;;;20.30;99.90;;;;;;6159198;23;20104;-88
2023/08/15 07:17:56;;;;;;;13.85;6.88;;;20.30;99.90;;;;;;6134451;23;20451;-88
2023/08/15 07:20:22;;;;;;;13.63;6.25;;;20.40;99.90;;;;;;6133557;23;20114;-88
2023/08/15 07:22:48;;;;;;;14.95;6.47;;;20.40;99.90;;;;;;6134212;23;20092;-88
2023/08/15 07:25:14;;;;;;;16.85;6.88;;;20.40;99.90;;;;;;6158641;23;20045;-87
2023/08/15 07:27:39;;;;;;;14.43;7.45;;;20.40;99.90;;;;;;6133819;23;20063;-88
2023/08/15 07:30:06;;;;;;;13.88;6.70;;;20.50;99.90;;;;;;6157469;23;20017;-88
2023/08/15 07:32:34;;;;;;;15.73;7.03;;;20.50;99.90;;;;;;6134594;23;20020;-88
2023/08/15 07:35:00;;;;;;;16.20;7.65;;;20.50;99.90;;;;;;6159106;23;20013;-88
2023/08/15 07:37:26;;;;;;;15.07;7.03;;;20.60;99.90;;;;;;6134648;23;20017;-88
2023/08/15 07:40:06;;;;;;;14.23;6.93;;;20.60;99.90;;;;;;6159536;23;20024;-87
2023/08/15 07:42:31;;;;;;;15.15;6.78;;;20.60;99.90;;;;;;6134070;23;20040;-88
2023/08/15 07:44:58;;;;;;;14.77;6.78;;;20.60;99.90;;;;;;6134782;23;20447;-87
2023/08/15 07:47:24;;;;;;;16.13;6.63;;;20.70;99.90;;;;;;6134300;23;20016;-87
2023/08/15 07:49:50;;;;;;;16.98;6.68;;;20.70;99.90;;;;;;6159172;23;20092;-87
2023/08/15 07:52:15;;;;;;;14.43;6.72;;;20.70;99.90;;;;;;6134723;23;20020;-87
2023/08/15 07:54:43;;;;;;;14.73;6.07;;;20.80;99.90;;;;;;6158671;23;20527;-87
2023/08/15 07:57:09;;;;;;;14.65;6.75;;;20.90;99.90;;;;;;6133638;23;20024;-87
2023/08/15 07:59:35;;;;;;;15.10;5.90;;;20.90;99.90;;;;;;6133989;23;20009;-87
2023/08/15 08:02:00;;;;;;;13.80;5.75;;;20.90;99.90;;;;;;6133301;23;20009;-87
2023/08/15 08:04:26;;;;;;;13.80;5.60;;;21.00;99.90;;;;;;6158087;23;20005;-87
2023/08/15 08:06:51;;;;;;;11.55;4.93;;;21.10;99.90;;;;;;6133549;23;20021;-86
2023/08/15 08:09:17;;;;;;;12.63;4.90;;;21.00;99.90;;;;;;6157979;23;20015;-86
2023/08/15 08:11:44;;;;;;;14.95;5.10;;;21.00;99.90;;;;;;6133816;23;20050;-87
2023/08/15 08:14:10;;;;;;;13.68;5.47;;;21.00;99.90;;;;;;6134068;23;20087;-87
2023/08/15 08:16:35;;;;;;;13.52;5.15;;;21.00;99.90;;;;;;6134347;23;20405;-87
2023/08/15 08:19:01;;;;;;;12.23;5.22;;;21.00;99.90;;;;;;6158624;23;20028;-87
2023/08/15 08:21:26;;;;;;;11.10;4.72;;;21.10;99.90;;;;;;6134145;23;20095;-87
2023/08/15 08:23:52;;;;;;;12.65;4.57;;;21.10;99.90;;;;;;6134107;23;20009;-87
2023/08/15 08:26:18;;;;;;;13.20;5.85;;;21.20;99.90;;;;;;6159232;23;20013;-87
2023/08/15 08:28:43;;;;;;;10.70;4.90;;;21.20;99.90;;;;;;6158611;23;20017;-87
2023/08/15 08:31:09;;;;;;;10.95;5.18;;;21.30;99.90;;;;;;6158668;23;20017;-87
2023/08/15 08:33:34;;;;;;;11.88;6.07;;;21.30;99.90;;;;;;6134551;23;20016;-87
2023/08/15 08:36:00;;;;;;;11.68;6.00;;;21.30;99.90;;;;;;6134248;23;20024;-87
2023/08/15 08:38:26;;;;;;;12.25;6.10;;;21.30;99.90;;;;;;6134288;23;20013;-87
2023/08/15 08:40:55;;;;;;;14.02;5.78;;;21.30;99.90;;;;;;6158607;23;20044;-87
2023/08/15 08:43:20;;;;;;;11.95;6.57;;;21.30;99.90;;;;;;6133189;23;20009;-87
2023/08/15 08:45:52;;;;;;;11.50;6.90;;;21.20;99.90;;;;;;6133004;23;20048;-87
2023/08/15 08:48:19;;;;;;;12.50;7.30;;;21.10;99.90;;;;;;6157733;23;20016;-87
2023/08/15 08:50:45;;;;;;;14.18;7.70;;;21.10;99.90;;;;;;6184313;23;20016;-87
2023/08/15 08:53:11;;;;;;;12.73;7.85;;;21.10;99.90;;;;;;6157149;23;20020;-87
2023/08/15 08:55:39;;;;;;;12.45;7.82;;;21.10;99.90;;;;;;6132251;23;20009;-87
2023/08/15 08:58:05;;;;;;;13.18;8.60;;;21.20;99.90;;;;;;6156162;23;20451;-87
2023/08/15 09:00:32;;;;;;;13.38;7.97;;;21.20;99.90;;;;;;6157053;23;20009;-87
2023/08/15 09:02:58;;;;;;;14.23;8.70;;;21.30;99.90;;;;;;6157372;23;20052;-87
2023/08/15 09:05:24;;;;;;;14.88;7.57;;;21.40;99.90;;;;;;6156820;23;20013;-87
2023/08/15 09:07:51;;;;;;;15.43;7.47;;;21.50;99.90;;;;;;6157849;23;20013;-86
2023/08/15 09:10:16;;;;;;;13.40;7.95;;;21.50;99.90;;;;;;6133754;23;20024;-86
2023/08/15 09:12:45;;;;;;;13.95;6.63;;;21.50;99.90;;;;;;6132861;23;20025;-86
2023/08/15 09:15:11;;;;;;;10.93;6.70;;;21.50;99.90;;;;;;6132893;23;20102;-86
2023/08/15 09:17:38;;;;;;;13.23;6.40;;;21.60;99.90;;;;;;6157389;23;20012;-86
2023/08/15 09:20:22;;;;;;;11.65;5.70;;;21.60;99.90;;;;;;6133120;23;20532;-87
2023/08/15 09:22:47;;;;;;;10.13;4.40;;;21.70;99.90;;;;;;6157839;23;20020;-87
2023/08/15 09:25:17;;;;;;;11.57;4.70;;;21.80;99.90;;;;;;6132579;23;20009;-87
2023/08/15 09:27:44;;;;;;;10.50;4.78;;;21.80;99.90;;;;;;6157577;23;20005;-88
2023/08/15 09:30:14;;;;;;;11.15;4.72;;;21.80;99.90;;;;;;6133981;23;20118;-88
2023/08/15 09:32:42;;;;;;;9.88;3.00;;;21.90;99.90;;;;;;6158617;23;20020;-87
2023/08/15 09:35:25;;;;;;;10.45;4.03;;;21.90;99.90;;;;;;6133105;23;20073;-87
2023/08/15 09:37:52;;;;;;;10.98;3.95;;;22.00;99.90;;;;;;6157477;23;20096;-88
2023/08/15 09:40:23;;;;;;;11.13;3.67;;;22.00;99.90;;;;;;6158221;23;20009;-88
2023/08/15 09:42:49;;;;;;;9.52;3.50;;;22.10;99.90;;;;;;6157830;23;20009;-87
2023/08/15 09:45:16;;;;;;;10.65;3.60;;;22.00;99.90;;;;;;6133155;23;20541;-88
2023/08/15 09:47:43;;;;;;;9.40;3.78;;;22.00;99.90;;;;;;6157423;23;20355;-88
2023/08/15 09:50:10;;;;;;;9.93;3.80;;;21.90;99.90;;;;;;6157862;23;20017;-87
2023/08/15 09:52:41;;;;;;;9.27;3.20;;;21.80;99.90;;;;;;6133917;23;20048;-88
2023/08/15 09:55:12;;;;;;;10.40;3.30;;;21.70;99.90;;;;;;6133030;23;20023;-87
2023/08/15 09:57:38;;;;;;;10.35;3.47;;;21.70;99.90;;;;;;6157383;23;20394;-87
2023/08/15 10:00:08;;;;;;;10.23;3.53;;;21.60;99.90;;;;;;6133174;23;20331;-87
2023/08/15 10:02:42;;;;;;;10.00;3.35;;;21.60;99.90;;;;;;6132149;23;20012;-87
2023/08/15 10:05:11;;;;;;;11.13;3.33;;;21.70;99.90;;;;;;6132936;23;20059;-87
2023/08/15 10:07:37;;;;;;;11.00;3.75;;;21.70;99.90;;;;;;6132554;23;20016;-87
2023/08/15 10:10:04;;;;;;;12.35;3.78;;;21.80;99.90;;;;;;6132725;23;20475;-88
2023/08/15 10:12:32;;;;;;;10.90;3.75;;;21.90;99.90;;;;;;6157764;23;20387;-88
2023/08/15 10:15:00;;;;;;;10.07;3.30;;;21.90;99.90;;;;;;6157250;23;20111;-87
2023/08/15 10:17:28;;;;;;;10.60;3.25;;;21.90;99.90;;;;;;6183762;23;20051;-88
2023/08/15 10:19:59;;;;;;;10.50;3.20;;;22.00;99.90;;;;;;6132660;23;20542;-87
2023/08/15 10:22:25;;;;;;;9.88;2.90;;;22.00;99.90;;;;;;6155895;23;20013;-87
2023/08/15 10:24:50;;;;;;;9.38;3.05;;;22.00;99.90;;;;;;6156933;23;20009;-87
2023/08/15 10:27:19;;;;;;;12.25;3.60;;;22.20;99.90;;;;;;6132499;23;20013;-88
2023/08/15 10:29:57;;;;;;;9.68;3.00;;;22.30;99.90;;;;;;6157845;23;20031;-88
2023/08/15 10:32:25;;;;;;;7.32;2.88;;;22.50;99.90;;;;;;6133286;23;20071;-87
2023/08/15 10:34:58;;;;;;;10.65;3.22;;;22.60;99.90;;;;;;6157599;23;20048;-88
2023/08/15 10:37:33;;;;;;;11.85;3.22;;;22.70;99.90;;;;;;6132802;23;20013;-88
2023/08/15 10:40:38;;;;;;;9.07;3.00;;;22.70;99.90;;;;;;6157310;23;20020;-88
2023/08/15 10:43:09;;;;;;;8.80;2.55;;;22.90;99.90;;;;;;6156956;23;20463;-88
2023/08/15 10:45:56;;;;;;;9.48;2.88;;;22.90;99.90;;;;;;6132117;23;20067;-88
2023/08/15 10:48:50;;;;;;;9.98;3.00;;;22.90;99.90;;;;;;6132727;23;20343;-88
2023/08/15 10:51:20;;;;;;;9.10;2.63;;;23.10;99.90;;;;;;6156043;23;20017;-88
2023/08/15 10:53:48;;;;;;;8.95;2.63;;;23.20;99.90;;;;;;6155319;23;20045;-85
2023/08/15 10:56:17;;;;;;;9.75;3.03;;;23.20;99.90;;;;;;6142581;23;20017;-88
2023/08/15 10:58:44;;;;;;;9.02;2.70;;;23.10;99.90;;;;;;6134567;23;20016;-87
2023/08/15 11:01:09;;;;;;;8.55;2.83;;;23.00;99.90;;;;;;6159138;23;20009;-88
2023/08/15 11:03:35;;;;;;;8.15;2.75;;;22.90;99.90;;;;;;6135117;23;20013;-88
2023/08/15 11:06:09;;;;;;;9.73;3.05;;;22.80;99.90;;;;;;6133692;23;20351;-88
2023/08/15 11:08:43;;;;;;;11.50;3.35;;;22.80;99.90;;;;;;6133413;23;20479;-88
2023/08/15 11:11:09;;;;;;;9.25;3.58;;;22.80;99.90;;;;;;6134151;23;20092;-88
2023/08/15 11:13:40;;;;;;;11.10;3.10;;;22.90;99.90;;;;;;6158206;23;20013;-88
2023/08/15 11:16:07;;;;;;;11.25;3.42;;;23.00;99.90;;;;;;6132302;23;20017;-88
2023/08/15 11:18:33;;;;;;;9.52;3.40;;;23.10;99.90;;;;;;6133069;23;20017;-89
2023/08/15 11:21:01;;;;;;;9.88;3.10;;;23.20;99.90;;;;;;6133305;23;20013;-88
2023/08/15 11:23:29;;;;;;;10.07;3.58;;;23.30;99.90;;;;;;6132740;23;20006;-88
2023/08/15 11:26:18;;;;;;;9.65;3.28;;;23.30;99.90;;;;;;6131602;23;20039;-89
2023/08/15 11:28:44;;;;;;;9.98;3.50;;;23.40;99.90;;;;;;6156950;23;20451;-88
2023/08/15 11:31:11;;;;;;;8.32;2.90;;;23.40;99.90;;;;;;6132968;23;20466;-89
2023/08/15 11:33:37;;;;;;;10.35;3.45;;;23.40;99.90;;;;;;6132626;23;20067;-89
2023/08/15 11:36:08;;;;;;;9.63;3.53;;;23.50;99.90;;;;;;6157368;23;20016;-89
2023/08/15 11:38:35;;;;;;;9.68;3.30;;;23.50;99.90;;;;;;6133512;23;20017;-89
2023/08/15 11:41:02;;;;;;;7.70;2.80;;;23.50;99.90;;;;;;6134462;23;20013;-88
2023/08/15 11:43:32;;;;;;;9.60;3.40;;;23.50;99.90;;;;;;6158915;23;20092;-88
2023/08/15 11:46:02;;;;;;;8.23;3.00;;;23.40;99.90;;;;;;6133568;23;20382;-88
2023/08/15 11:48:30;;;;;;;9.27;3.22;;;23.40;99.90;;;;;;6134211;23;20009;-89
2023/08/15 11:50:55;;;;;;;10.13;3.33;;;23.40;99.90;;;;;;6185722;23;20044;-89
2023/08/15 11:53:21;;;;;;;8.95;3.53;;;23.50;99.90;;;;;;6184696;23;20662;-89
2023/08/15 11:55:47;;;;;;;10.88;3.70;;;23.60;99.90;;;;;;6158428;23;20013;-88
2023/08/15 11:58:26;;;;;;;9.63;3.45;;;23.70;99.90;;;;;;6158507;23;20017;-89
2023/08/15 12:01:00;;;;;;;9.18;3.63;;;23.80;99.90;;;;;;6134276;23;20017;-89
2023/08/15 12:03:26;;;;;;;9.93;3.78;;;23.80;99.90;;;;;;6185235;23;20016;-89
2023/08/15 12:05:57;;;;;;;9.85;3.40;;;23.90;99.90;;;;;;6158254;23;20351;-89
2023/08/15 12:08:27;;;;;;;10.38;3.20;;;23.90;99.90;;;;;;6158216;23;20009;-89
2023/08/15 12:10:55;;;;;;;8.85;3.13;;;23.90;99.90;;;;;;6158895;23;20160;-88
2023/08/15 12:13:33;;;;;;;8.95;3.33;;;24.10;99.90;;;;;;6185647;23;20024;-89
2023/08/15 12:16:00;;;;;;;9.40;3.53;;;24.20;99.90;;;;;;6134023;23;20013;-88
2023/08/15 12:18:26;;;;;;;9.23;3.53;;;24.20;99.90;;;;;;6133835;23;20075;-89
2023/08/15 12:20:52;;;;;;;8.93;3.28;;;24.10;99.90;;;;;;6134612;23;20021;-89
2023/08/15 12:23:17;;;;;;;10.68;3.95;;;24.00;99.90;;;;;;6134269;23;20028;-89
2023/08/15 12:25:43;;;;;;;9.65;3.40;;;24.00;99.90;;;;;;6133856;23;20014;-89
2023/08/15 12:28:09;;;;;;;7.93;3.70;;;23.90;99.90;;;;;;6158472;23;20009;-89
2023/08/15 12:30:34;;;;;;;10.48;3.70;;;23.90;99.90;;;;;;6134532;23;20092;-89
2023/08/15 12:33:01;;;;;;;8.77;3.70;;;23.90;99.90;;;;;;6134564;23;20012;-89
2023/08/15 12:35:26;;;;;;;9.07;3.70;;;23.90;99.90;;;;;;6158909;23;20044;-89